Time;durP1;ratioP1;P1;durP2;ratioP2;P2;SDS_P1;SDS_P2;PMS_P1;PMS_P2;Temp;Humidity;BMP_temperature;BMP_pressure;BME280_temperature;BME280_humidity;BME280_pressure;Samples;Min_cycle;Max_cycle;Signal;HPM_P1;HPM_P2
2022/06/17 00:01:47;;;;;;;;;24.33;24.33;27.90;38.60;;;;;;5074359;28;8787;-73
2022/06/17 00:04:13;;;;;;;;;24.67;24.67;27.90;38.70;;;;;;5074280;28;8770;-71
2022/06/17 00:07:04;;;;;;;;;20.33;20.33;28.00;38.70;;;;;;5074228;28;8837;-73
2022/06/17 00:09:32;;;;;;;;;23.00;23.00;28.00;38.70;;;;;;5076274;28;8908;-73
2022/06/17 00:11:58;;;;;;;;;22.33;22.33;28.00;38.90;;;;;;5077822;28;8776;-73
2022/06/17 00:14:32;;;;;;;;;21.33;21.33;27.90;38.90;;;;;;5094739;28;8756;-74
2022/06/17 00:17:03;;;;;;;;;21.00;21.00;27.70;39.10;;;;;;5094398;28;8801;-73
2022/06/17 00:19:29;;;;;;;;;21.00;21.00;27.70;39.30;;;;;;5094758;28;9445;-73
2022/06/17 00:21:56;;;;;;;;;21.33;21.33;27.70;39.40;;;;;;5094402;28;8791;-74
2022/06/17 00:24:31;;;;;;;;;24.00;24.00;27.70;39.30;;;;;;5094622;28;8776;-73
2022/06/17 00:26:57;;;;;;;;;19.33;19.33;27.70;39.40;;;;;;5094338;28;8840;-73
2022/06/17 00:29:27;;;;;;;;;24.00;24.00;27.40;39.80;;;;;;5094306;28;8772;-74
2022/06/17 00:31:53;;;;;;;;;21.67;21.67;26.90;40.30;;;;;;5094215;28;8772;-73
2022/06/17 00:34:18;;;;;;;;;24.33;24.33;27.00;40.70;;;;;;5094207;28;8806;-74
2022/06/17 00:36:45;;;;;;;;;21.00;21.00;27.20;40.40;;;;;;5094244;28;8774;-72
2022/06/17 00:39:23;;;;;;;;;22.00;22.00;27.20;40.30;;;;;;5076526;28;9414;-73
2022/06/17 00:41:52;;;;;;;;;19.00;18.67;27.20;40.20;;;;;;5094532;28;8764;-72
2022/06/17 00:44:33;;;;;;;;;24.00;24.00;27.20;40.30;;;;;;5094382;28;8794;-73
2022/06/17 00:47:26;;;;;;;;;22.33;22.33;27.20;40.50;;;;;;5094186;28;8792;-73
2022/06/17 00:49:55;;;;;;;;;22.33;22.33;27.20;40.40;;;;;;5086798;28;8756;-73
2022/06/17 00:52:29;;;;;;;;;26.00;26.00;27.20;40.60;;;;;;5094208;28;8933;-73
2022/06/17 00:55:20;;;;;;;;;26.33;26.33;27.10;40.70;;;;;;5094434;28;8862;-73
2022/06/17 00:57:46;;;;;;;;;26.00;26.00;27.10;40.70;;;;;;5083118;28;8783;-73
2022/06/17 01:00:18;;;;;;;;;23.00;23.00;27.20;40.60;;;;;;5094056;28;8782;-73
2022/06/17 01:02:48;;;;;;;;;17.00;17.00;27.20;40.40;;;;;;5094078;28;8769;-74
2022/06/17 01:05:16;;;;;;;;;22.33;22.33;27.20;40.10;;;;;;5093785;28;8783;-73
2022/06/17 01:07:49;;;;;;;;;20.33;20.33;27.30;40.10;;;;;;5097450;28;8832;-73
2022/06/17 01:10:17;;;;;;;;;20.00;20.00;27.20;40.20;;;;;;5098080;28;8795;-73
2022/06/17 01:12:49;;;;;;;;;17.00;17.00;26.90;40.20;;;;;;5097987;28;8764;-72
2022/06/17 01:15:19;;;;;;;;;19.00;19.00;26.70;40.80;;;;;;5097963;28;9190;-74
2022/06/17 01:17:47;;;;;;;;;15.00;15.00;26.50;41.40;;;;;;5097874;28;8796;-72
2022/06/17 01:20:13;;;;;;;;;19.00;19.00;26.40;41.20;;;;;;5097805;28;9449;-72
2022/06/17 01:22:43;;;;;;;;;20.33;20.33;26.20;41.70;;;;;;5097750;28;9534;-73
2022/06/17 01:25:14;;;;;;;;;19.33;19.33;26.00;42.40;;;;;;5097477;28;8791;-72
2022/06/17 01:27:49;;;;;;;;;23.00;23.00;25.90;42.80;;;;;;5097462;28;8791;-73
2022/06/17 01:30:25;;;;;;;;;21.33;21.33;25.70;43.20;;;;;;5097684;28;8771;-72
2022/06/17 01:33:12;;;;;;;;;19.67;19.67;25.70;44.30;;;;;;5097412;28;8744;-72
2022/06/17 01:35:44;;;;;;;;;21.67;21.67;25.70;43.20;;;;;;5097236;28;8789;-74
2022/06/17 01:38:11;;;;;;;;;19.00;19.00;25.50;43.50;;;;;;5097542;28;8973;-72
2022/06/17 01:40:37;;;;;;;;;21.33;21.33;25.50;43.90;;;;;;5097289;28;8764;-74
2022/06/17 01:43:06;;;;;;;;;19.33;19.33;25.50;43.60;;;;;;5097218;28;8763;-72
2022/06/17 01:45:34;;;;;;;;;20.33;20.33;25.60;43.80;;;;;;5097296;28;9483;-73
2022/06/17 01:48:00;;;;;;;;;18.67;18.67;25.70;43.90;;;;;;5097000;28;8780;-72
2022/06/17 01:50:27;;;;;;;;;20.33;20.33;25.90;43.40;;;;;;5096967;28;8760;-72
2022/06/17 01:53:02;;;;;;;;;17.33;17.33;26.10;43.30;;;;;;5097241;28;8752;-72
2022/06/17 01:55:49;;;;;;;;;22.00;22.00;26.40;42.70;;;;;;5097207;28;8780;-73
2022/06/17 01:58:27;;;;;;;;;19.67;19.67;26.60;42.20;;;;;;5096950;28;8760;-72
2022/06/17 02:00:54;;;;;;;;;18.67;18.67;26.80;41.80;;;;;;5078940;28;8787;-73
2022/06/17 02:03:28;;;;;;;;;20.00;20.00;26.60;41.50;;;;;;5096765;28;8768;-72
2022/06/17 02:06:42;;;;;;;;;18.00;18.00;26.20;42.30;;;;;;5096969;28;8819;-72
2022/06/17 02:09:08;;;;;;;;;19.33;19.33;26.40;42.60;;;;;;5014419;28;8789;-72
2022/06/17 02:11:34;;;;;;;;;18.33;18.33;26.30;42.70;;;;;;5014537;28;8851;-73
2022/06/17 02:14:06;;;;;;;;;23.33;23.33;26.00;43.30;;;;;;5014520;28;8753;-71
2022/06/17 02:16:38;;;;;;;;;23.00;23.00;26.20;43.30;;;;;;5014332;28;8784;-73
2022/06/17 02:19:04;;;;;;;;;21.67;21.67;25.90;43.60;;;;;;5014266;28;8796;-72
2022/06/17 02:21:38;;;;;;;;;21.33;21.33;26.00;44.10;;;;;;5014431;28;8752;-72
2022/06/17 02:24:05;;;;;;;;;23.33;23.00;26.20;43.60;;;;;;5014311;28;8963;-72
2022/06/17 02:26:34;;;;;;;;;21.67;21.67;26.30;43.70;;;;;;5014206;28;8874;-72
2022/06/17 02:29:04;;;;;;;;;22.33;22.33;26.30;43.70;;;;;;5014209;28;8768;-72
2022/06/17 02:31:33;;;;;;;;;20.33;20.33;26.40;43.60;;;;;;5014243;28;8776;-74
2022/06/17 02:33:59;;;;;;;;;20.00;20.00;26.50;43.60;;;;;;5014126;28;8879;-72
2022/06/17 02:36:54;;;;;;;;;24.00;24.00;26.40;43.70;;;;;;5014074;28;8801;-74
2022/06/17 02:39:20;;;;;;;;;22.00;22.00;26.30;44.10;;;;;;4936399;29;8834;-74
2022/06/17 02:41:48;;;;;;;;;24.33;24.33;26.30;44.20;;;;;;4936500;29;8868;-73
2022/06/17 02:44:22;;;;;;;;;22.33;22.33;26.30;44.30;;;;;;5011882;28;8776;-73
2022/06/17 02:46:51;;;;;;;;;25.33;25.33;26.10;44.90;;;;;;5013858;28;8800;-73
2022/06/17 02:49:25;;;;;;;;;23.33;23.33;26.20;45.10;;;;;;5013761;28;8780;-74
2022/06/17 02:51:51;;;;;;;;;23.67;23.67;26.40;44.90;;;;;;5013816;28;8795;-73
2022/06/17 02:54:43;;;;;;;;;26.00;26.00;26.50;44.70;;;;;;5013784;28;8794;-73
2022/06/17 02:57:19;;;;;;;;;19.67;19.67;26.40;45.60;;;;;;5013708;28;8784;-73
2022/06/17 02:59:50;;;;;;;;;23.00;23.00;26.50;45.50;;;;;;4989791;28;8827;-73
2022/06/17 03:02:29;;;;;;;;;25.00;25.00;26.30;46.00;;;;;;5013612;28;8812;-73
2022/06/17 03:04:56;;;;;;;;;25.33;25.33;26.30;46.40;;;;;;5013552;28;8812;-73
2022/06/17 03:07:28;;;;;;;;;28.33;28.33;26.50;46.10;;;;;;5013344;28;8836;-74
2022/06/17 03:09:54;;;;;;;;;27.33;27.33;26.50;46.10;;;;;;5013465;28;8784;-73
2022/06/17 03:12:29;;;;;;;;;4.00;4.00;26.40;46.20;;;;;;5013537;28;8744;-74
2022/06/17 03:15:10;;;;;;;;;27.67;27.67;26.50;46.20;;;;;;5027772;28;8763;-74
2022/06/17 03:17:41;;;;;;;;;29.33;29.33;26.40;46.70;;;;;;5095244;28;8835;-73
2022/06/17 03:20:13;;;;;;;;;26.33;26.33;26.40;46.80;;;;;;5095672;28;8855;-73
2022/06/17 03:22:39;;;;;;;;;27.00;27.00;26.30;47.00;;;;;;5095282;28;8763;-73
2022/06/17 03:25:34;;;;;;;;;24.67;24.67;26.30;47.20;;;;;;5095472;28;8787;-73
2022/06/17 03:28:06;;;;;;;;;26.67;26.67;26.30;47.20;;;;;;5094848;28;8755;-73
2022/06/17 03:30:44;;;;;;;;;27.33;27.33;26.20;47.80;;;;;;5095227;28;8756;-73
2022/06/17 03:33:34;;;;;;;;;28.67;28.67;26.30;47.70;;;;;;5095123;28;8736;-73
2022/06/17 03:36:08;;;;;;;;;30.00;30.00;26.20;47.80;;;;;;5095349;28;8763;-72
2022/06/17 03:38:43;;;;;;;;;29.67;29.67;26.20;48.10;;;;;;5094478;28;8797;-74
2022/06/17 03:41:26;;;;;;;;;30.00;30.00;26.40;47.90;;;;;;5087682;28;8795;-72
2022/06/17 03:44:01;;;;;;;;;26.00;26.00;26.50;47.60;;;;;;5075492;28;8782;-73
2022/06/17 03:46:33;;;;;;;;;27.33;27.33;26.40;47.80;;;;;;5089639;28;8853;-73
2022/06/17 03:49:05;;;;;;;;;22.00;22.00;26.30;48.20;;;;;;5094776;28;8790;-72
2022/06/17 03:51:33;;;;;;;;;28.67;28.67;26.20;48.50;;;;;;5094999;28;9441;-74
2022/06/17 03:53:59;;;;;;;;;28.33;28.33;26.20;48.80;;;;;;5094756;28;8791;-73
2022/06/17 03:56:34;;;;;;;;;29.33;29.33;26.30;48.60;;;;;;5094696;28;8804;-73
2022/06/17 03:59:04;;;;;;;;;30.67;30.67;26.30;48.50;;;;;;5076866;28;8771;-74
2022/06/17 04:01:44;;;;;;;;;30.00;30.00;26.30;48.70;;;;;;5094996;28;8776;-71
2022/06/17 04:04:23;;;;;;;;;33.33;32.33;26.00;49.50;;;;;;5094643;28;8783;-73
2022/06/17 04:06:52;;;;;;;;;33.00;32.00;26.10;49.60;;;;;;5094391;28;8884;-74
2022/06/17 04:09:21;;;;;;;;;29.00;29.00;26.20;49.60;;;;;;5094541;28;8760;-72
2022/06/17 04:11:50;;;;;;;;;33.00;32.00;25.90;50.20;;;;;;5094755;28;8752;-74
2022/06/17 04:14:35;;;;;;;;;30.00;30.00;26.00;50.10;;;;;;5094750;28;8864;-74
2022/06/17 04:17:10;;;;;;;;;26.67;26.67;26.00;50.40;;;;;;5094417;28;8748;-73
2022/06/17 04:19:35;;;;;;;;;29.67;29.67;26.00;50.70;;;;;;5094233;28;8804;-74
2022/06/17 04:22:25;;;;;;;;;31.67;31.33;26.10;50.60;;;;;;5094598;28;8780;-74
2022/06/17 04:24:59;;;;;;;;;29.67;29.67;26.10;50.60;;;;;;5094400;28;8784;-74
2022/06/17 04:27:56;;;;;;;;;31.33;31.00;26.20;50.40;;;;;;5094552;28;8783;-73
2022/06/17 04:30:17;;;;;;;;;32.67;31.67;26.30;50.30;;;;;;5094344;28;8780;-73
2022/06/17 04:32:43;;;;;;;;;27.00;27.00;26.30;50.50;;;;;;5094442;28;8755;-73
2022/06/17 04:35:13;;;;;;;;;28.33;28.33;26.40;50.10;;;;;;5094316;28;8748;-76
2022/06/17 04:37:40;;;;;;;;;31.33;30.33;26.20;50.70;;;;;;5094316;28;8780;-71
2022/06/17 04:40:19;;;;;;;;;33.67;32.33;25.90;51.50;;;;;;5084743;28;8798;-70
2022/06/17 04:42:46;;;;;;;;;33.67;32.33;25.90;51.90;;;;;;5087109;28;8764;-73
2022/06/17 04:45:23;;;;;;;;;32.00;31.67;25.60;52.90;;;;;;5091430;28;8772;-73
2022/06/17 04:47:49;;;;;;;;;27.67;27.67;25.50;53.40;;;;;;5077902;28;8816;-76
2022/06/17 04:50:19;;;;;;;;;24.00;24.00;25.50;53.30;;;;;;5069707;28;8773;-77
2022/06/17 04:52:49;;;;;;;;;30.00;30.00;25.70;53.00;;;;;;5079357;28;8781;-77
2022/06/17 04:55:17;;;;;;;;;30.33;30.33;25.70;53.10;;;;;;5083086;28;8782;-76
2022/06/17 04:57:43;;;;;;;;;34.00;32.67;25.50;53.90;;;;;;5096237;28;8786;-76
2022/06/17 05:00:18;;;;;;;;;34.33;32.33;25.70;53.50;;;;;;5092125;28;8779;-76
2022/06/17 05:02:44;;;;;;;;;33.33;32.33;25.50;54.30;;;;;;5080752;28;8781;-77
2022/06/17 05:05:17;;;;;;;;;29.67;29.67;25.50;54.40;;;;;;5085428;28;8910;-75
2022/06/17 05:07:49;;;;;;;;;28.00;28.00;25.70;54.10;;;;;;5097950;28;8842;-73
2022/06/17 05:10:29;;;;;;;;;30.67;30.67;25.60;54.20;;;;;;5098063;28;8762;-75
2022/06/17 05:13:16;;;;;;;;;25.33;25.33;25.60;54.40;;;;;;5097771;28;8776;-78
2022/06/17 05:15:43;;;;;;;;;33.00;32.00;25.80;54.30;;;;;;5094664;28;8786;-75
2022/06/17 05:18:09;;;;;;;;;30.33;30.33;25.80;53.70;;;;;;5077083;28;8875;-75
2022/06/17 05:20:35;;;;;;;;;30.00;30.00;25.80;53.50;;;;;;5077246;28;8770;-77
2022/06/17 05:23:04;;;;;;;;;31.33;31.33;25.50;54.60;;;;;;5077279;28;8782;-75
2022/06/17 05:25:34;;;;;;;;;28.33;28.33;25.80;54.00;;;;;;5077274;28;8765;-75
2022/06/17 05:28:00;;;;;;;;;30.33;30.33;26.10;52.90;;;;;;5077331;28;8793;-74
2022/06/17 05:30:40;;;;;;;;;32.00;31.33;26.00;52.50;;;;;;5077403;28;8882;-74
2022/06/17 05:33:10;;;;;;;;;34.00;33.00;26.00;52.80;;;;;;5077462;28;8765;-77
2022/06/17 05:35:36;;;;;;;;;29.33;29.33;26.20;52.80;;;;;;5077388;28;8785;-72
2022/06/17 05:38:02;;;;;;;;;30.67;29.67;26.30;52.10;;;;;;5077190;28;8809;-76
2022/06/17 05:40:27;;;;;;;;;35.33;33.33;26.10;52.70;;;;;;5076966;28;8858;-75
2022/06/17 05:42:53;;;;;;;;;26.33;26.33;26.00;53.60;;;;;;5076967;28;8762;-76
2022/06/17 05:45:26;;;;;;;;;34.00;33.00;26.00;52.80;;;;;;5076800;28;8804;-80
2022/06/17 05:47:52;;;;;;;;;32.00;31.33;26.10;53.20;;;;;;5076824;28;8824;-76
2022/06/17 05:50:20;;;;;;;;;31.67;31.33;26.20;52.70;;;;;;5076803;28;8785;-78
2022/06/17 05:52:48;;;;;;;;;31.00;30.33;26.60;51.70;;;;;;5076045;28;8790;-78
2022/06/17 05:55:14;;;;;;;;;28.33;28.33;26.80;51.10;;;;;;5076693;28;9556;-79
2022/06/17 05:57:40;;;;;;;;;27.00;27.00;27.00;50.30;;;;;;5076222;28;8873;-77
2022/06/17 06:00:06;;;;;;;;;30.33;30.33;26.50;50.90;;;;;;5076745;28;8784;-75
2022/06/17 06:02:32;;;;;;;;;29.00;29.00;26.30;51.30;;;;;;5076941;28;8750;-79
2022/06/17 06:04:58;;;;;;;;;29.67;29.67;26.30;50.90;;;;;;5076490;28;9400;-79
2022/06/17 06:07:24;;;;;;;;;29.00;29.00;26.00;53.40;;;;;;5076358;28;8848;-79
2022/06/17 06:09:49;;;;;;;;;25.67;25.67;26.50;51.70;;;;;;5076626;28;8782;-79
2022/06/17 06:12:15;;;;;;;;;28.67;28.67;26.70;50.70;;;;;;5075771;28;8782;-79
2022/06/17 06:14:41;;;;;;;;;31.67;31.00;27.10;50.40;;;;;;5076398;28;8758;-78
2022/06/17 06:17:10;;;;;;;;;20.00;20.00;26.70;50.30;;;;;;5075866;28;8782;-77
2022/06/17 06:19:37;;;;;;;;;31.33;31.33;26.70;50.60;;;;;;5076516;28;8932;-78
2022/06/17 06:22:04;;;;;;;;;24.33;24.33;26.40;51.60;;;;;;5076649;28;8880;-76
2022/06/17 06:24:29;;;;;;;;;29.67;29.67;26.30;51.60;;;;;;5076141;28;8766;-76
2022/06/17 06:26:55;;;;;;;;;30.33;30.33;26.10;52.50;;;;;;5076096;28;8828;-76
2022/06/17 06:29:21;;;;;;;;;27.00;27.00;26.40;52.20;;;;;;5076001;28;8881;-76
2022/06/17 06:31:48;;;;;;;;;29.00;29.00;26.70;51.50;;;;;;5075997;28;8766;-77
2022/06/17 06:34:16;;;;;;;;;26.00;26.00;27.10;50.60;;;;;;5075824;28;8746;-77
2022/06/17 06:36:42;;;;;;;;;28.00;28.00;27.20;49.70;;;;;;5075796;28;8753;-77
2022/06/17 06:39:09;;;;;;;;;30.00;30.00;27.40;49.10;;;;;;5076248;28;8802;-76
2022/06/17 06:41:34;;;;;;;;;25.00;25.00;27.60;48.90;;;;;;5075696;28;8774;-75
2022/06/17 06:44:00;;;;;;;;;20.33;20.33;27.60;48.70;;;;;;5075897;28;8851;-75
2022/06/17 06:46:27;;;;;;;;;27.33;27.33;27.60;48.60;;;;;;5075823;28;8798;-75
2022/06/17 06:48:52;;;;;;;;;25.33;25.33;27.90;48.30;;;;;;5075539;28;9348;-77
2022/06/17 06:51:19;;;;;;;;;28.67;28.67;28.00;47.40;;;;;;5075663;28;8750;-75
2022/06/17 06:53:45;;;;;;;;;25.00;25.00;28.10;47.20;;;;;;5075539;28;8836;-76
2022/06/17 06:56:11;;;;;;;;;23.33;23.33;28.00;45.90;;;;;;5075703;28;8804;-76
2022/06/17 06:58:38;;;;;;;;;24.33;24.33;28.00;46.70;;;;;;5075369;28;8770;-77
2022/06/17 07:01:04;;;;;;;;;23.67;23.67;28.10;46.80;;;;;;5075338;28;8766;-75
2022/06/17 07:03:31;;;;;;;;;25.67;25.67;28.30;46.60;;;;;;5074293;28;8784;-76
2022/06/17 07:06:03;;;;;;;;;25.00;25.00;28.10;46.80;;;;;;5075154;28;8778;-78
2022/06/17 07:08:32;;;;;;;;;23.00;23.00;27.90;46.60;;;;;;5075540;28;8905;-77
2022/06/17 07:10:59;;;;;;;;;25.67;25.67;27.90;46.80;;;;;;5075120;28;8778;-76
2022/06/17 07:13:27;;;;;;;;;23.33;23.33;28.10;46.60;;;;;;5075328;28;8754;-77
2022/06/17 07:15:56;;;;;;;;;23.00;22.00;27.80;46.30;;;;;;5075044;28;8758;-79
2022/06/17 07:18:25;;;;;;;;;23.67;23.67;27.80;47.00;;;;;;5074864;28;8812;-78
2022/06/17 07:20:54;;;;;;;;;23.00;23.00;27.80;46.90;;;;;;5074997;28;8778;-76
2022/06/17 07:23:23;;;;;;;;;20.33;20.33;28.10;46.40;;;;;;5074999;28;8851;-77
2022/06/17 07:25:50;;;;;;;;;24.67;24.67;28.40;45.90;;;;;;5075070;28;8761;-78
2022/06/17 07:28:20;;;;;;;;;21.33;21.33;28.20;45.10;;;;;;5075079;28;8781;-74
2022/06/17 07:30:48;;;;;;;;;23.67;23.67;27.90;45.60;;;;;;5074841;28;8792;-75
2022/06/17 07:33:15;;;;;;;;;17.00;17.00;28.10;45.70;;;;;;5074786;28;8753;-77
2022/06/17 07:35:43;;;;;;;;;23.33;23.33;28.20;45.50;;;;;;5074971;28;8765;-78
2022/06/17 07:41:06;;;;;;;;;23.00;23.00;28.30;46.10;;;;;;5074807;28;8765;-77
2022/06/17 07:43:32;;;;;;;;;19.33;19.33;28.70;44.90;;;;;;5074605;28;8785;-76
2022/06/17 07:45:59;;;;;;;;;22.67;22.67;28.90;45.50;;;;;;5074521;28;8773;-77
2022/06/17 07:48:25;;;;;;;;;21.67;21.67;28.30;45.10;;;;;;5074410;28;9191;-77
2022/06/17 07:50:52;;;;;;;;;21.33;21.33;28.10;45.80;;;;;;5074869;28;8778;-78
2022/06/17 07:53:19;;;;;;;;;25.00;25.00;28.40;44.90;;;;;;5074802;28;8789;-76
2022/06/17 07:55:45;;;;;;;;;24.00;24.00;28.80;43.90;;;;;;5074514;28;8761;-77
2022/06/17 07:58:13;;;;;;;;;23.00;23.00;29.20;43.60;;;;;;5074464;28;8766;-77
2022/06/17 08:00:41;;;;;;;;;24.33;24.33;28.80;44.10;;;;;;5074722;28;8770;-77
2022/06/17 08:03:08;;;;;;;;;19.33;19.33;28.90;43.90;;;;;;5074338;28;8889;-78
2022/06/17 08:05:35;;;;;;;;;17.00;17.00;29.10;43.50;;;;;;5074340;28;8773;-76
2022/06/17 08:08:03;;;;;;;;;19.33;19.33;29.10;43.50;;;;;;5074435;28;8860;-75
2022/06/17 08:10:33;;;;;;;;;21.67;21.67;29.00;43.40;;;;;;5074259;28;8809;-76
2022/06/17 08:12:59;;;;;;;;;18.33;18.33;29.30;43.30;;;;;;5074266;28;8796;-77
2022/06/17 08:15:25;;;;;;;;;20.33;20.33;29.20;43.10;;;;;;5074289;28;8872;-75
2022/06/17 08:17:52;;;;;;;;;20.33;20.33;29.50;42.90;;;;;;5074229;28;9589;-76
2022/06/17 08:20:22;;;;;;;;;18.00;18.00;29.70;42.30;;;;;;5074401;28;8770;-78
2022/06/17 08:22:49;;;;;;;;;22.67;22.67;29.70;40.90;;;;;;5074431;28;8778;-77
2022/06/17 08:25:15;;;;;;;;;17.00;17.00;29.30;41.80;;;;;;5074307;28;11457;-76
2022/06/17 08:27:46;;;;;;;;;18.00;18.00;29.40;41.70;;;;;;5074024;28;8805;-75
2022/06/17 08:30:13;;;;;;;;;22.00;22.00;30.00;41.10;;;;;;5074086;28;8770;-74
2022/06/17 08:33:00;;;;;;;;;12.00;12.00;29.90;41.50;;;;;;5074059;28;8774;-76
2022/06/17 08:35:35;;;;;;;;;17.67;17.67;30.00;40.50;;;;;;5073526;28;8809;-76
2022/06/17 08:38:04;;;;;;;;;20.00;20.00;30.20;39.70;;;;;;5074032;28;8826;-74
2022/06/17 08:40:42;;;;;;;;;18.00;18.00;30.50;40.20;;;;;;5073811;28;11441;-75
2022/06/17 08:43:14;;;;;;;;;19.33;19.33;30.90;39.60;;;;;;5074079;28;11571;-76
2022/06/17 08:45:48;;;;;;;;;16.67;16.67;31.10;38.20;;;;;;5073960;28;8888;-75
2022/06/17 08:48:43;;;;;;;;;16.33;16.33;31.30;38.10;;;;;;5073902;28;11599;-75
2022/06/17 08:51:19;;;;;;;;;19.67;19.67;31.00;38.30;;;;;;5071889;28;11442;-75
2022/06/17 08:54:19;;;;;;;;;14.33;14.33;31.20;38.20;;;;;;5073813;28;11474;-74
2022/06/17 08:57:06;;;;;;;;;16.33;16.33;31.30;38.10;;;;;;5073747;28;11425;-75
2022/06/17 09:00:06;;;;;;;;;17.00;17.00;31.50;37.20;;;;;;5073893;28;11457;-76
2022/06/17 09:02:55;;;;;;;;;17.00;17.00;31.30;37.70;;;;;;5073058;28;11447;-75
2022/06/17 09:05:43;;;;;;;;;16.00;16.00;31.20;37.80;;;;;;5073872;28;12110;-75
2022/06/17 09:08:27;;;;;;;;;7.67;7.67;31.00;37.70;;;;;;5073649;28;11510;-75
2022/06/17 09:11:01;;;;;;;;;15.00;15.00;31.50;37.20;;;;;;5073570;28;11428;-76
2022/06/17 09:13:52;;;;;;;;;16.00;16.00;31.50;37.00;;;;;;5073560;28;11433;-74
2022/06/17 09:16:39;;;;;;;;;14.33;14.33;31.40;37.50;;;;;;5073628;28;11485;-76
2022/06/17 09:19:07;;;;;;;;;14.00;14.00;31.80;37.00;;;;;;5073415;28;11480;-76
2022/06/17 09:21:42;;;;;;;;;17.33;17.33;32.10;36.70;;;;;;5073656;28;8738;-75
2022/06/17 09:24:15;;;;;;;;;18.00;18.00;32.40;36.20;;;;;;5073893;28;8742;-75
2022/06/17 09:26:52;;;;;;;;;15.00;15.00;31.70;36.50;;;;;;5074745;28;11506;-75
2022/06/17 09:29:27;;;;;;;;;14.67;14.67;31.50;37.20;;;;;;5076920;28;11453;-74
2022/06/17 09:32:03;;;;;;;;;17.00;17.00;30.80;37.50;;;;;;5076846;28;11426;-76
2022/06/17 09:34:59;;;;;;;;;13.67;13.67;30.80;38.40;;;;;;5059253;28;11576;-76
2022/06/17 09:37:36;;;;;;;;;16.00;16.00;31.40;37.40;;;;;;5051222;28;11473;-77
2022/06/17 09:40:15;;;;;;;;;14.67;14.67;31.80;35.80;;;;;;5076849;28;11561;-77
2022/06/17 09:42:51;;;;;;;;;16.67;16.67;32.30;36.10;;;;;;5077043;28;11468;-75
2022/06/17 09:45:45;;;;;;;;;16.33;16.33;32.50;35.50;;;;;;5076693;28;11562;-75
2022/06/17 09:48:14;;;;;;;;;11.25;11.25;32.90;35.10;;;;;;5076842;28;11684;-74
2022/06/17 09:51:06;;;;;;;;;13.00;13.00;32.40;34.70;;;;;;5076669;28;12102;-76
2022/06/17 09:53:41;;;;;;;;;16.67;16.67;32.40;34.60;;;;;;5076703;28;11438;-75
2022/06/17 09:56:30;;;;;;;;;16.67;16.67;32.50;35.00;;;;;;5076519;28;11469;-75
2022/06/17 09:59:13;;;;;;;;;15.50;15.50;33.20;35.10;;;;;;5076844;28;11530;-78
2022/06/17 10:01:41;;;;;;;;;23.33;23.33;33.00;35.10;;;;;;5076590;28;12206;-76
2022/06/17 10:04:12;;;;;;;;;16.67;16.67;33.40;35.00;;;;;;5076304;28;8864;-77
2022/06/17 10:06:43;;;;;;;;;13.00;13.00;33.90;34.30;;;;;;5076011;28;11497;-78
2022/06/17 10:09:48;;;;;;;;;12.33;12.33;33.60;32.90;;;;;;5076646;28;11479;-77
2022/06/17 10:12:24;;;;;;;;;23.67;23.67;32.90;34.20;;;;;;5076492;28;11430;-74
2022/06/17 10:15:12;;;;;;;;;14.25;14.25;33.00;33.80;;;;;;5076026;28;11530;-78
2022/06/17 10:21:02;;;;;;;;;13.00;13.00;32.30;34.30;;;;;;5076173;28;11411;-78
2022/06/17 10:23:31;;;;;;;;;11.00;11.00;32.50;33.30;;;;;;5075970;28;11493;-77
2022/06/17 10:26:27;;;;;;;;;10.50;10.50;32.70;33.20;;;;;;5075893;28;11559;-78
2022/06/17 10:29:12;;;;;;;;;9.75;9.75;32.20;34.60;;;;;;5076006;28;11439;-77
2022/06/17 10:31:47;;;;;;;;;9.75;9.75;31.40;33.70;;;;;;5076050;28;12228;-77
2022/06/17 10:34:22;;;;;;;;;10.67;10.67;32.20;33.10;;;;;;5075703;28;11437;-78
2022/06/17 10:36:52;;;;;;;;;8.00;8.00;32.20;33.40;;;;;;5075670;28;11390;-77
2022/06/17 10:39:21;;;;;;;;;8.00;8.00;32.60;32.40;;;;;;5075921;28;11476;-77
2022/06/17 10:41:47;;;;;;;;;9.75;9.75;32.40;32.40;;;;;;5075703;28;11418;-77
2022/06/17 10:44:16;;;;;;;;;8.00;8.00;32.30;31.50;;;;;;5074564;28;12081;-76
2022/06/17 10:46:47;;;;;;;;;9.00;9.00;32.60;31.90;;;;;;5075472;28;11429;-77
2022/06/17 10:49:18;;;;;;;;;9.25;9.25;33.20;31.40;;;;;;5075587;28;11528;-77
2022/06/17 10:51:47;;;;;;;;;9.75;9.75;33.60;30.40;;;;;;5075448;28;11479;-76
2022/06/17 10:54:26;;;;;;;;;6.50;6.50;33.20;30.30;;;;;;5075372;28;11519;-76
2022/06/17 10:57:11;;;;;;;;;9.00;9.00;32.60;31.20;;;;;;5075404;28;11399;-77
2022/06/17 10:59:41;;;;;;;;;9.00;9.00;32.30;32.00;;;;;;5075419;28;11371;-76
2022/06/17 11:02:31;;;;;;;;;9.50;9.50;33.60;31.30;;;;;;5087088;28;11501;-76
2022/06/17 11:05:05;;;;;;;;;11.00;11.00;34.20;30.20;;;;;;5087214;28;11417;-75
2022/06/17 11:07:52;;;;;;;;;9.00;9.00;34.30;29.90;;;;;;5079136;28;11564;-76
2022/06/17 11:10:23;;;;;;;;;5.00;5.00;35.50;29.20;;;;;;5095052;28;11393;-76
2022/06/17 11:13:15;;;;;;;;;8.25;8.25;34.70;29.20;;;;;;5077355;28;11379;-77
2022/06/17 11:15:56;;;;;;;;;8.00;8.00;33.70;29.60;;;;;;5091480;28;11416;-78
2022/06/17 11:18:43;;;;;;;;;9.75;9.75;33.90;30.00;;;;;;5095078;28;11543;-77
2022/06/17 11:21:21;;;;;;;;;8.50;8.50;34.70;30.00;;;;;;5095168;28;11389;-77
2022/06/17 11:23:51;;;;;;;;;10.25;10.25;35.20;31.00;;;;;;5094186;28;11496;-79
2022/06/17 11:26:21;;;;;;;;;9.75;9.75;35.80;29.30;;;;;;5080456;28;11469;-80
2022/06/17 11:28:54;;;;;;;;;10.00;10.00;35.40;28.70;;;;;;5093310;28;11365;-83
2022/06/17 11:31:20;;;;;;;;;11.25;11.25;35.30;29.40;;;;;;5093626;28;11398;-84
2022/06/17 11:33:59;;;;;;;;;9.00;9.00;35.60;28.60;;;;;;5088750;28;11448;-82
2022/06/17 11:36:28;;;;;;;;;7.00;7.00;35.90;28.00;;;;;;5089643;28;8773;-82
2022/06/17 11:38:57;;;;;;;;;7.50;7.50;35.90;28.00;;;;;;5093444;28;11493;-81
2022/06/17 11:41:30;;;;;;;;;8.75;8.75;36.30;28.10;;;;;;5094890;28;11538;-77
2022/06/17 11:44:06;;;;;;;;;7.00;7.00;36.40;27.60;;;;;;5089843;28;11431;-77
2022/06/17 11:46:34;;;;;;;;;3.75;3.75;35.90;27.60;;;;;;5087831;28;11450;-78
2022/06/17 11:49:13;;;;;;;;;8.25;8.25;35.60;26.90;;;;;;5086513;28;11560;-78
2022/06/17 11:51:50;;;;;;;;;8.00;8.00;35.20;28.60;;;;;;5089857;28;11418;-78
2022/06/17 11:54:24;;;;;;;;;6.25;6.25;35.80;27.50;;;;;;5086146;28;11523;-79
2022/06/17 11:56:51;;;;;;;;;8.00;8.00;35.00;27.60;;;;;;5087890;28;11428;-79
2022/06/17 11:59:21;;;;;;;;;8.00;8.00;35.00;27.80;;;;;;5091380;28;11423;-78
2022/06/17 12:02:07;;;;;;;;;6.75;6.75;34.80;27.20;;;;;;5071990;28;11413;-78
2022/06/17 12:04:45;;;;;;;;;6.75;6.75;35.70;27.00;;;;;;5090258;28;11467;-81
2022/06/17 12:07:34;;;;;;;;;6.75;6.75;35.90;26.70;;;;;;5081311;28;11432;-74
2022/06/17 12:10:24;;;;;;;;;8.00;8.00;36.40;26.90;;;;;;5091929;28;11474;-73
2022/06/17 12:12:55;;;;;;;;;7.00;7.00;36.40;26.80;;;;;;5091863;28;11530;-76
2022/06/17 12:15:55;;;;;;;;;7.75;7.75;36.50;26.60;;;;;;5090287;28;11500;-74
2022/06/17 12:18:32;;;;;;;;;6.50;6.50;36.80;26.00;;;;;;5085917;28;11448;-73
2022/06/17 12:21:06;;;;;;;;;8.00;8.00;36.50;26.50;;;;;;5087882;28;12051;-74
2022/06/17 12:23:45;;;;;;;;;8.50;8.50;37.20;26.30;;;;;;5085959;28;11402;-75
2022/06/17 12:26:44;;;;;;;;;8.00;8.00;37.30;25.70;;;;;;5088687;28;12092;-73
2022/06/17 12:29:17;;;;;;;;;8.75;8.75;37.50;25.70;;;;;;5064355;28;11556;-74
2022/06/17 12:31:46;;;;;;;;;7.50;7.50;37.60;25.50;;;;;;5088309;28;12020;-75
2022/06/17 12:34:23;;;;;;;;;6.50;6.50;37.40;26.00;;;;;;5092614;28;11383;-74
2022/06/17 12:36:54;;;;;;;;;7.00;7.00;37.30;25.80;;;;;;5092692;28;11380;-74
2022/06/17 12:39:44;;;;;;;;;8.00;8.00;37.10;26.40;;;;;;5090703;28;11395;-74
2022/06/17 12:42:40;;;;;;;;;6.50;6.50;36.60;26.00;;;;;;5092483;28;11386;-72
2022/06/17 12:45:36;;;;;;;;;7.50;7.50;36.50;26.10;;;;;;5091350;28;11392;-74
2022/06/17 12:48:29;;;;;;;;;6.00;6.00;36.50;25.70;;;;;;5089098;28;11432;-72
2022/06/17 12:54:47;;;;;;;;;9.25;9.25;37.10;25.80;;;;;;5073721;28;11350;-72
2022/06/17 12:57:31;;;;;;;;;9.25;9.25;36.90;25.40;;;;;;5069629;28;11532;-72
2022/06/17 13:00:18;;;;;;;;;6.00;6.00;37.40;25.70;;;;;;5081958;28;11461;-73
2022/06/17 13:03:12;;;;;;;;;8.00;8.00;36.90;25.00;;;;;;5077435;28;12187;-73
2022/06/17 13:05:48;;;;;;;;;7.75;7.75;35.70;25.70;;;;;;5089136;28;11397;-73
2022/06/17 13:08:41;;;;;;;;;6.75;6.75;34.90;26.80;;;;;;5082910;28;11556;-73
2022/06/17 13:11:45;;;;;;;;;6.75;6.75;34.90;27.00;;;;;;5087074;28;11406;-73
2022/06/17 13:14:16;;;;;;;;;7.00;7.00;35.20;26.90;;;;;;5097759;28;11433;-73
2022/06/17 13:16:50;;;;;;;;;7.75;7.75;35.80;26.50;;;;;;5098187;28;11588;-74
2022/06/17 13:19:42;;;;;;;;;6.75;6.75;35.30;26.10;;;;;;5067664;28;11475;-74
2022/06/17 13:22:33;;;;;;;;;7.00;7.00;34.40;26.70;;;;;;5075303;28;11418;-74